BBU weather

Băneasa International Airport
Bucharest, Bucureşti, Romania

Public forecast

Using degrees Celsius for public forecast. Weather courtesy of forecast.io.

METAR (pilot weather report)

Retrieved 2019/05/19 15:30 UTC (20 minutes ago):

LRBS 191530Z 11006KT 090V150 CAVOK 26/16 Q1008 NOSIG

TAF (pilot weather forecast)

Retrieved 2019/05/19 12:33 UTC (3 hours ago):

TAF TAF LRBS 191100Z 1912/2012 11010KT CAVOK BECMG 2008/2010 17012KT